Time;durP1;ratioP1;P1;durP2;ratioP2;P2;SDS_P1;SDS_P2;PMS_P1;PMS_P2;Temp;Humidity;BMP_temperature;BMP_pressure;BME280_temperature;BME280_humidity;BME280_pressure;Samples;Min_cycle;Max_cycle;Signal;HPM_P1;HPM_P2
2022/05/29 05:00:16;;;;;;;3.67;1.90;;;13.50;97.20;;;;;;1741321;28;20233;-73
2022/05/29 05:01:07;;;;;;;4.28;2.05;;;13.60;97.20;;;;;;1741474;28;20294;-72
2022/05/29 05:01:59;;;;;;;3.83;2.57;;;13.60;97.20;;;;;;1741311;28;20248;-72
2022/05/29 05:02:51;;;;;;;3.00;1.83;;;13.60;97.20;;;;;;1741507;28;20620;-72
2022/05/29 05:03:42;;;;;;;5.32;2.30;;;13.60;97.20;;;;;;1741457;28;20270;-72
2022/05/29 05:04:33;;;;;;;3.08;2.15;;;13.60;97.20;;;;;;1741570;28;20199;-72
2022/05/29 05:05:27;;;;;;;2.30;2.10;;;13.60;97.20;;;;;;1741492;28;20195;-72
2022/05/29 05:06:19;;;;;;;4.80;2.17;;;13.60;97.20;;;;;;1741341;28;20211;-72
2022/05/29 05:07:11;;;;;;;5.55;2.05;;;13.60;97.20;;;;;;1741288;28;20207;-72
2022/05/29 05:08:01;;;;;;;3.00;2.10;;;13.60;97.20;;;;;;1741463;28;20578;-72
2022/05/29 05:08:53;;;;;;;2.80;2.03;;;13.60;97.20;;;;;;1741210;28;20563;-72
2022/05/29 05:09:44;;;;;;;3.80;2.00;;;13.70;97.20;;;;;;1741440;28;20240;-72
2022/05/29 05:10:36;;;;;;;4.30;2.13;;;13.70;97.20;;;;;;1741462;28;20229;-72
2022/05/29 05:11:26;;;;;;;2.95;2.30;;;13.70;97.20;;;;;;1741413;28;20445;-72
2022/05/29 05:12:18;;;;;;;2.20;1.97;;;13.70;97.20;;;;;;1741494;28;20210;-72
2022/05/29 05:13:09;;;;;;;4.13;2.15;;;13.70;97.20;;;;;;1741407;28;20218;-72
2022/05/29 05:14:01;;;;;;;5.33;2.50;;;13.70;97.20;;;;;;1741189;28;20314;-72
2022/05/29 05:14:52;;;;;;;3.15;2.50;;;13.70;97.20;;;;;;1741282;28;20457;-72
2022/05/29 05:15:45;;;;;;;3.40;2.10;;;13.70;97.20;;;;;;1741390;28;20207;-72
2022/05/29 05:16:35;;;;;;;2.95;2.10;;;13.70;97.20;;;;;;1740797;28;20453;-72
2022/05/29 05:17:27;;;;;;;3.50;2.20;;;13.70;97.20;;;;;;1741519;28;20191;-72
2022/05/29 05:18:18;;;;;;;4.07;2.38;;;13.80;97.20;;;;;;1741333;28;20202;-72
2022/05/29 05:19:10;;;;;;;8.77;2.80;;;13.80;97.20;;;;;;1741396;28;20234;-72
2022/05/29 05:20:01;;;;;;;5.60;2.05;;;13.80;97.20;;;;;;1741314;28;20195;-73
2022/05/29 05:20:52;;;;;;;2.55;1.70;;;13.80;97.20;;;;;;1740924;28;20202;-72
2022/05/29 05:21:43;;;;;;;3.38;1.80;;;13.80;97.20;;;;;;1741426;28;20230;-72
2022/05/29 05:22:35;;;;;;;4.77;2.47;;;13.90;97.20;;;;;;1741456;28;20202;-72
2022/05/29 05:23:27;;;;;;;5.13;2.70;;;13.90;97.20;;;;;;1741377;28;20490;-72
2022/05/29 05:24:20;;;;;;;4.65;2.40;;;13.90;97.20;;;;;;1741417;28;20732;-72
2022/05/29 05:25:11;;;;;;;3.85;2.15;;;13.90;97.20;;;;;;1741337;28;20233;-71
2022/05/29 05:26:09;;;;;;;5.15;2.38;;;14.00;97.20;;;;;;1741308;28;20222;-72
2022/05/29 05:26:59;;;;;;;4.38;2.17;;;14.00;97.20;;;;;;1741130;28;20318;-72
2022/05/29 05:27:51;;;;;;;4.93;2.40;;;14.00;97.20;;;;;;1741347;28;20730;-72
2022/05/29 05:28:42;;;;;;;3.17;2.17;;;14.00;97.20;;;;;;1741359;28;20245;-71
2022/05/29 05:29:34;;;;;;;3.20;2.60;;;14.00;97.20;;;;;;1741260;28;20199;-72
2022/05/29 05:30:25;;;;;;;3.95;2.45;;;14.00;97.20;;;;;;1741177;28;20441;-72
2022/05/29 05:31:18;;;;;;;5.17;2.77;;;14.00;97.20;;;;;;1741364;28;20198;-71
2022/05/29 05:32:09;;;;;;;3.00;2.22;;;14.00;97.20;;;;;;1741111;28;20445;-71
2022/05/29 05:33:01;;;;;;;2.90;2.42;;;14.00;97.20;;;;;;1741402;28;20266;-72
2022/05/29 05:33:52;;;;;;;4.10;2.55;;;14.10;97.20;;;;;;1741293;28;20265;-72
2022/05/29 05:34:44;;;;;;;4.78;2.17;;;14.10;97.20;;;;;;1741193;28;20705;-72
2022/05/29 05:35:35;;;;;;;3.00;2.30;;;14.10;97.20;;;;;;1741400;28;20210;-72
2022/05/29 05:36:27;;;;;;;2.83;1.97;;;14.10;97.20;;;;;;1741360;28;20211;-72
2022/05/29 05:37:17;;;;;;;2.95;1.75;;;14.10;97.20;;;;;;1741012;28;20214;-72
2022/05/29 05:38:09;;;;;;;6.57;2.27;;;14.20;97.20;;;;;;1741281;28;20289;-72
2022/05/29 05:39:00;;;;;;;4.22;1.90;;;14.20;97.20;;;;;;1741480;28;20195;-72
2022/05/29 05:39:52;;;;;;;2.23;1.90;;;14.20;97.20;;;;;;1741347;28;20662;-72
2022/05/29 05:40:43;;;;;;;4.25;2.20;;;14.30;97.20;;;;;;1741179;28;20641;-72
2022/05/29 05:41:35;;;;;;;3.80;2.07;;;14.30;97.20;;;;;;1741338;28;20199;-72
2022/05/29 05:42:26;;;;;;;3.30;2.05;;;14.40;97.20;;;;;;1741286;28;20267;-72
2022/05/29 05:43:19;;;;;;;4.03;2.50;;;14.40;97.20;;;;;;1741309;28;20252;-72
2022/05/29 05:44:09;;;;;;;17.58;3.53;;;14.40;97.20;;;;;;1741198;28;20195;-72
2022/05/29 05:45:01;;;;;;;3.27;1.77;;;14.50;97.20;;;;;;1741158;28;20225;-73
2022/05/29 05:45:52;;;;;;;4.15;2.25;;;14.50;97.20;;;;;;1741254;28;20438;-72
2022/05/29 05:46:46;;;;;;;4.03;1.90;;;14.50;97.20;;;;;;1740937;28;20206;-72
2022/05/29 05:47:37;;;;;;;3.17;2.05;;;14.60;97.20;;;;;;1741251;28;20690;-72
2022/05/29 05:48:30;;;;;;;3.75;2.60;;;14.60;97.20;;;;;;1741362;28;20677;-72
2022/05/29 05:49:22;;;;;;;2.97;2.10;;;14.60;97.20;;;;;;1740775;28;20575;-72
2022/05/29 05:50:15;;;;;;;2.70;2.10;;;14.60;97.20;;;;;;1741341;28;20199;-72
2022/05/29 05:51:07;;;;;;;4.75;2.00;;;14.70;97.20;;;;;;1741213;28;20329;-72
2022/05/29 05:51:59;;;;;;;3.70;2.17;;;14.70;97.20;;;;;;1741201;28;20594;-72
2022/05/29 05:52:51;;;;;;;2.42;2.00;;;14.70;97.20;;;;;;1741250;28;20202;-72
2022/05/29 05:53:41;;;;;;;2.15;1.80;;;14.70;97.20;;;;;;1741145;28;20195;-72
2022/05/29 05:54:34;;;;;;;4.43;2.20;;;14.70;97.20;;;;;;1741208;28;20209;-72
2022/05/29 05:55:25;;;;;;;4.65;1.95;;;14.80;97.20;;;;;;1741150;28;20740;-72
2022/05/29 05:56:18;;;;;;;4.23;2.30;;;14.80;97.20;;;;;;1741255;28;20592;-72
2022/05/29 05:57:09;;;;;;;2.63;2.13;;;14.70;97.20;;;;;;1741034;28;20226;-72
2022/05/29 05:58:02;;;;;;;4.70;2.93;;;14.80;97.20;;;;;;1741000;28;20202;-72
2022/05/29 05:58:53;;;;;;;7.20;2.28;;;14.80;97.20;;;;;;1741212;28;20278;-72
2022/05/29 05:59:44;;;;;;;3.13;2.03;;;14.80;97.20;;;;;;1741121;28;20233;-72
2022/05/29 06:00:35;;;;;;;2.22;2.00;;;14.80;97.20;;;;;;1741069;28;20207;-71
2022/05/29 06:01:27;;;;;;;2.63;2.40;;;14.80;97.20;;;;;;1741102;28;20194;-72
2022/05/29 06:02:20;;;;;;;2.72;2.03;;;14.80;97.20;;;;;;1741172;28;20257;-72
2022/05/29 06:03:12;;;;;;;6.32;2.40;;;14.90;97.20;;;;;;1741060;28;20268;-71
2022/05/29 06:04:03;;;;;;;3.15;2.50;;;14.90;97.20;;;;;;1741137;28;20199;-72
2022/05/29 06:04:54;;;;;;;3.22;2.15;;;14.90;97.20;;;;;;1741104;28;20203;-72
2022/05/29 06:05:48;;;;;;;2.78;2.03;;;14.90;97.20;;;;;;1740966;28;20582;-72
2022/05/29 06:06:39;;;;;;;3.30;2.25;;;14.90;97.20;;;;;;1740877;28;20202;-72
2022/05/29 06:07:30;;;;;;;3.60;2.20;;;15.00;97.20;;;;;;1740867;28;20613;-72
2022/05/29 06:08:22;;;;;;;3.80;2.57;;;15.00;97.20;;;;;;1740926;28;20218;-71
2022/05/29 06:09:14;;;;;;;2.65;2.25;;;15.10;97.20;;;;;;1740729;28;20283;-72
2022/05/29 06:10:06;;;;;;;3.72;2.50;;;15.10;97.20;;;;;;1741118;28;20203;-72
2022/05/29 06:10:58;;;;;;;5.07;2.70;;;15.10;97.20;;;;;;1741104;28;20191;-72
2022/05/29 06:11:48;;;;;;;2.60;2.13;;;15.10;97.20;;;;;;1741134;28;20214;-73
2022/05/29 06:12:41;;;;;;;3.80;2.50;;;15.10;97.20;;;;;;1741206;28;20197;-72
2022/05/29 06:13:32;;;;;;;3.92;2.25;;;15.20;97.20;;;;;;1740990;28;20328;-75
2022/05/29 06:14:24;;;;;;;2.43;2.23;;;15.20;97.20;;;;;;1741004;28;20242;-72
2022/05/29 06:15:14;;;;;;;5.45;2.63;;;15.20;97.20;;;;;;1740906;28;21024;-71
2022/05/29 06:16:06;;;;;;;2.90;2.30;;;15.20;97.20;;;;;;1740356;28;20567;-71
2022/05/29 06:16:57;;;;;;;3.55;2.65;;;15.20;97.20;;;;;;1702356;28;20235;-71
2022/05/29 06:17:50;;;;;;;6.15;2.13;;;15.20;97.20;;;;;;1733293;28;20611;-72
2022/05/29 06:18:41;;;;;;;3.13;2.70;;;15.20;97.20;;;;;;1726912;28;20237;-71
2022/05/29 06:19:33;;;;;;;6.60;2.33;;;15.30;97.20;;;;;;1720265;28;20212;-71
2022/05/29 06:20:24;;;;;;;4.57;2.40;;;15.30;97.20;;;;;;1720650;28;20209;-72
2022/05/29 06:21:16;;;;;;;3.08;2.60;;;15.30;97.20;;;;;;1720709;28;20612;-71
2022/05/29 06:22:07;;;;;;;3.08;2.17;;;15.40;97.20;;;;;;1720655;28;20597;-72
2022/05/29 06:22:58;;;;;;;3.60;2.10;;;15.40;97.20;;;;;;1720719;28;20214;-71
2022/05/29 06:23:49;;;;;;;3.05;2.38;;;15.50;97.20;;;;;;1720665;28;20707;-71
2022/05/29 06:24:41;;;;;;;2.77;2.03;;;15.50;97.20;;;;;;1720447;28;20613;-71
2022/05/29 06:25:32;;;;;;;2.95;2.05;;;15.50;97.20;;;;;;1720435;28;20197;-71
2022/05/29 06:26:23;;;;;;;4.60;2.30;;;15.60;97.20;;;;;;1720652;28;20207;-71
2022/05/29 06:27:14;;;;;;;1.92;1.73;;;15.60;97.20;;;;;;1720423;28;20216;-71
2022/05/29 06:28:08;;;;;;;2.40;1.83;;;15.70;97.20;;;;;;1720523;28;20283;-71
2022/05/29 06:28:59;;;;;;;4.75;1.90;;;15.70;97.20;;;;;;1720621;28;20213;-71
2022/05/29 06:29:50;;;;;;;3.73;2.43;;;15.80;97.20;;;;;;1720535;28;20250;-71
2022/05/29 06:30:41;;;;;;;3.97;2.15;;;15.80;97.20;;;;;;1720710;28;20205;-71
2022/05/29 06:31:33;;;;;;;3.63;2.23;;;15.90;97.20;;;;;;1720656;28;20203;-71
2022/05/29 06:32:23;;;;;;;3.65;2.28;;;15.90;97.20;;;;;;1720647;28;20201;-71
2022/05/29 06:33:16;;;;;;;3.50;2.30;;;16.00;97.20;;;;;;1721435;28;20201;-71
2022/05/29 06:34:07;;;;;;;1.73;1.60;;;16.10;97.20;;;;;;1721967;28;20241;-71
2022/05/29 06:34:59;;;;;;;4.30;2.30;;;16.20;97.20;;;;;;1722002;28;20228;-71
2022/05/29 06:35:51;;;;;;;3.95;2.17;;;16.30;97.20;;;;;;1721997;28;20232;-71
2022/05/29 06:36:42;;;;;;;3.30;2.20;;;16.40;97.20;;;;;;1721734;28;20574;-71
2022/05/29 06:37:33;;;;;;;2.80;2.00;;;16.50;97.20;;;;;;1722137;28;20205;-71
2022/05/29 06:38:25;;;;;;;5.00;2.00;;;16.60;97.20;;;;;;1721993;28;20679;-70
2022/05/29 06:39:16;;;;;;;2.95;1.92;;;16.70;97.20;;;;;;1721723;28;20525;-71
2022/05/29 06:40:11;;;;;;;5.00;2.20;;;16.80;97.20;;;;;;1721954;28;20223;-71
2022/05/29 06:41:04;;;;;;;2.58;1.90;;;16.80;97.20;;;;;;1722041;28;20232;-71
2022/05/29 06:41:56;;;;;;;5.05;2.15;;;16.90;97.20;;;;;;1722009;28;20284;-71
2022/05/29 06:42:47;;;;;;;3.80;1.90;;;17.00;97.20;;;;;;1721880;28;20204;-71
2022/05/29 06:43:40;;;;;;;3.90;2.30;;;17.00;97.20;;;;;;1722066;28;20288;-71
2022/05/29 06:44:30;;;;;;;1.80;1.70;;;17.10;97.20;;;;;;1721766;28;20448;-71
2022/05/29 06:45:22;;;;;;;2.83;2.10;;;17.10;97.20;;;;;;1721922;28;20221;-72
2022/05/29 06:46:13;;;;;;;3.95;2.00;;;17.10;97.20;;;;;;1721908;28;20585;-71
2022/05/29 06:47:08;;;;;;;3.42;2.20;;;17.10;97.20;;;;;;1721712;28;20259;-71
2022/05/29 06:47:58;;;;;;;3.60;2.47;;;17.20;97.20;;;;;;1721938;28;20201;-71
2022/05/29 06:48:51;;;;;;;2.80;1.90;;;17.10;97.20;;;;;;1721972;28;20224;-71
2022/05/29 06:49:42;;;;;;;2.97;1.92;;;17.10;97.20;;;;;;1721978;28;20229;-71
2022/05/29 06:50:34;;;;;;;2.90;1.80;;;17.10;97.20;;;;;;1721939;28;20212;-72
2022/05/29 06:51:25;;;;;;;3.90;2.10;;;17.10;97.20;;;;;;1721980;28;20685;-71
2022/05/29 06:52:17;;;;;;;4.27;2.20;;;17.00;97.20;;;;;;1722067;28;20687;-72
2022/05/29 06:53:08;;;;;;;3.97;2.10;;;17.00;97.20;;;;;;1721912;28;20617;-71
2022/05/29 06:54:01;;;;;;;2.80;2.00;;;17.00;97.20;;;;;;1721497;28;20201;-71
2022/05/29 06:54:52;;;;;;;4.72;2.03;;;16.90;97.20;;;;;;1721597;28;20205;-73
2022/05/29 06:55:51;;;;;;;3.20;2.27;;;16.90;97.20;;;;;;1721881;28;20732;-72
2022/05/29 06:56:42;;;;;;;1.95;1.58;;;16.90;97.20;;;;;;1721690;28;20232;-72
2022/05/29 06:57:43;;;;;;;3.90;2.20;;;16.80;97.20;;;;;;1721854;28;20215;-71
2022/05/29 06:58:35;;;;;;;3.70;1.90;;;16.80;97.20;;;;;;1721916;28;20228;-72
2022/05/29 06:59:26;;;;;;;3.47;2.05;;;16.70;97.20;;;;;;1721905;28;20292;-73
2022/05/29 07:07:17;;;;;;;4.88;2.20;;;16.50;97.20;;;;;;1721696;28;20735;-71
2022/05/29 07:08:09;;;;;;;2.25;1.95;;;16.50;97.20;;;;;;1721739;28;20205;-71
2022/05/29 07:09:01;;;;;;;3.05;2.00;;;16.50;97.20;;;;;;1721830;28;20219;-71
2022/05/29 07:09:52;;;;;;;3.20;2.10;;;16.40;97.20;;;;;;1721554;28;20205;-71
2022/05/29 07:10:44;;;;;;;4.37;2.60;;;16.40;97.20;;;;;;1721651;28;20193;-71
2022/05/29 07:11:39;;;;;;;2.92;2.00;;;16.40;97.20;;;;;;1721813;28;20251;-71
2022/05/29 07:12:32;;;;;;;4.20;2.10;;;16.40;97.20;;;;;;1721869;28;20617;-71
2022/05/29 07:13:23;;;;;;;3.58;2.30;;;16.30;97.20;;;;;;1721645;28;20197;-72
2022/05/29 07:14:16;;;;;;;4.83;1.83;;;16.30;97.20;;;;;;1721296;28;20223;-71
2022/05/29 07:15:08;;;;;;;3.97;2.00;;;16.30;97.20;;;;;;1718713;28;20856;-72
2022/05/29 07:15:59;;;;;;;4.13;2.00;;;16.30;97.20;;;;;;1721144;28;20197;-72
2022/05/29 07:16:50;;;;;;;2.58;1.88;;;16.30;97.20;;;;;;1721028;28;20251;-72
2022/05/29 07:17:42;;;;;;;2.83;1.80;;;16.30;97.20;;;;;;1721273;28;20201;-72
2022/05/29 07:18:33;;;;;;;4.43;2.00;;;16.30;97.20;;;;;;1721272;28;20232;-71
2022/05/29 07:19:28;;;;;;;3.40;2.43;;;16.30;97.20;;;;;;1721252;28;20284;-73
2022/05/29 07:20:20;;;;;;;3.83;2.00;;;16.30;97.20;;;;;;1721298;28;20197;-71
2022/05/29 07:21:12;;;;;;;2.97;1.85;;;16.20;97.20;;;;;;1721311;28;20241;-71
2022/05/29 07:22:03;;;;;;;3.55;1.85;;;16.20;97.20;;;;;;1715915;28;20209;-71
2022/05/29 07:22:56;;;;;;;2.28;1.90;;;16.20;97.20;;;;;;1721395;28;20216;-71
2022/05/29 07:23:47;;;;;;;2.80;1.88;;;16.30;97.20;;;;;;1721257;28;20197;-71
2022/05/29 07:24:39;;;;;;;2.83;1.90;;;16.30;97.20;;;;;;1721180;28;20232;-71
2022/05/29 07:25:30;;;;;;;4.45;2.08;;;16.30;97.20;;;;;;1721546;28;20444;-72
2022/05/29 07:26:22;;;;;;;2.53;2.00;;;16.30;97.20;;;;;;1720947;28;20197;-71
2022/05/29 07:27:13;;;;;;;3.40;1.95;;;16.30;97.20;;;;;;1720858;28;20567;-74
2022/05/29 07:28:06;;;;;;;3.43;2.10;;;16.30;97.20;;;;;;1721161;28;20295;-71
2022/05/29 07:28:56;;;;;;;2.70;2.20;;;16.30;97.20;;;;;;1721376;28;20491;-72
2022/05/29 07:29:48;;;;;;;3.20;2.30;;;16.30;97.20;;;;;;1721327;28;20263;-72
2022/05/29 07:30:39;;;;;;;4.15;2.10;;;16.30;97.20;;;;;;1721332;28;20201;-71
2022/05/29 07:31:30;;;;;;;3.00;2.27;;;16.30;97.20;;;;;;1721312;28;20203;-71
2022/05/29 07:32:23;;;;;;;3.90;2.30;;;16.30;97.20;;;;;;1721162;28;20220;-72
2022/05/29 07:33:15;;;;;;;3.47;2.38;;;16.30;97.20;;;;;;1721169;28;20193;-72
2022/05/29 07:34:06;;;;;;;3.60;2.15;;;16.30;97.20;;;;;;1721208;28;20212;-71
2022/05/29 07:34:58;;;;;;;2.97;1.90;;;16.40;97.20;;;;;;1721146;28;20225;-71
2022/05/29 07:35:50;;;;;;;3.00;2.00;;;16.40;97.20;;;;;;1721140;28;20711;-72
2022/05/29 07:36:42;;;;;;;4.97;2.10;;;16.40;97.20;;;;;;1721260;28;20240;-72
2022/05/29 07:37:32;;;;;;;5.00;2.30;;;16.40;97.20;;;;;;1721422;28;20193;-71
2022/05/29 07:38:24;;;;;;;2.13;1.93;;;16.50;97.20;;;;;;1721241;28;20197;-72
2022/05/29 07:39:15;;;;;;;3.65;2.10;;;16.50;97.20;;;;;;1721622;28;20205;-72
2022/05/29 07:40:08;;;;;;;2.90;2.00;;;16.50;97.20;;;;;;1721376;28;20197;-72
2022/05/29 07:40:59;;;;;;;4.05;2.28;;;16.50;97.20;;;;;;1721562;28;20448;-72
2022/05/29 07:44:09;;;;;;;4.13;2.00;;;16.60;97.20;;;;;;1720609;28;20224;-72
2022/05/29 07:45:00;;;;;;;2.80;1.75;;;16.60;97.20;;;;;;1721306;28;20240;-72
2022/05/29 07:45:53;;;;;;;3.87;1.90;;;16.70;97.20;;;;;;1721557;28;20219;-71
2022/05/29 07:46:44;;;;;;;4.82;2.53;;;16.70;97.20;;;;;;1721285;28;20448;-72
2022/05/29 07:47:38;;;;;;;2.63;1.63;;;16.70;97.20;;;;;;1721551;28;20205;-71
2022/05/29 07:48:29;;;;;;;5.00;1.73;;;16.80;97.20;;;;;;1720814;28;20506;-72
2022/05/29 07:49:22;;;;;;;4.20;2.05;;;16.80;97.20;;;;;;1720960;28;20571;-71
2022/05/29 07:50:15;;;;;;;4.75;1.73;;;16.90;97.20;;;;;;1721346;28;20209;-72
2022/05/29 07:51:09;;;;;;;2.10;1.88;;;16.90;97.20;;;;;;1721568;28;20205;-72
2022/05/29 07:52:00;;;;;;;2.30;1.98;;;17.00;97.20;;;;;;1721607;28;20536;-72
2022/05/29 07:52:52;;;;;;;3.20;1.90;;;17.00;97.20;;;;;;1721574;28;20201;-72
2022/05/29 07:53:43;;;;;;;2.70;1.63;;;17.00;97.20;;;;;;1721543;28;20665;-71
2022/05/29 07:54:35;;;;;;;2.10;1.60;;;17.10;97.20;;;;;;1721477;28;20618;-71
2022/05/29 07:55:26;;;;;;;2.05;1.80;;;17.10;97.20;;;;;;1721486;28;20252;-72
2022/05/29 07:56:19;;;;;;;2.57;2.00;;;17.20;97.20;;;;;;1721484;28;20216;-72
2022/05/29 07:57:10;;;;;;;2.33;1.75;;;17.30;97.20;;;;;;1721193;28;20452;-71
2022/05/29 07:58:02;;;;;;;3.33;1.87;;;17.30;97.20;;;;;;1721426;28;20223;-71
2022/05/29 07:58:53;;;;;;;3.33;1.83;;;17.40;97.20;;;;;;1721112;28;20201;-71
2022/05/29 07:59:44;;;;;;;2.40;1.80;;;17.50;97.20;;;;;;1721499;28;20291;-72
2022/05/29 08:00:35;;;;;;;2.42;1.70;;;17.50;97.20;;;;;;1721550;28;20228;-71
2022/05/29 08:01:27;;;;;;;1.70;1.50;;;17.60;97.20;;;;;;1721545;28;20205;-72
2022/05/29 08:02:18;;;;;;;2.00;1.65;;;17.60;97.20;;;;;;1721479;28;20491;-71
2022/05/29 08:03:10;;;;;;;2.80;1.80;;;17.70;97.20;;;;;;1721464;28;20235;-72
2022/05/29 08:04:00;;;;;;;3.60;1.80;;;17.80;97.20;;;;;;1721390;28;20295;-72
2022/05/29 08:04:53;;;;;;;2.40;1.77;;;17.90;97.20;;;;;;1721318;28;20193;-71
2022/05/29 08:05:44;;;;;;;3.08;1.95;;;17.90;97.20;;;;;;1721451;28;20288;-72
2022/05/29 08:06:37;;;;;;;3.87;2.00;;;18.00;97.20;;;;;;1721211;28;20256;-72
2022/05/29 08:07:28;;;;;;;7.93;2.40;;;18.00;97.20;;;;;;1721438;28;20246;-72
2022/05/29 08:08:19;;;;;;;3.70;2.50;;;18.00;97.20;;;;;;1721414;28;20206;-72
2022/05/29 08:09:10;;;;;;;4.72;3.00;;;18.10;97.20;;;;;;1721451;28;20232;-72
2022/05/29 08:10:03;;;;;;;5.03;3.90;;;18.10;97.20;;;;;;1721498;28;20200;-72
2022/05/29 08:10:54;;;;;;;5.95;4.75;;;18.10;97.20;;;;;;1721440;28;20244;-72
2022/05/29 08:11:46;;;;;;;5.43;3.97;;;18.10;97.20;;;;;;1721453;28;20205;-71
2022/05/29 08:12:36;;;;;;;5.63;3.70;;;18.00;97.20;;;;;;1721441;28;20229;-72
2022/05/29 08:13:28;;;;;;;4.50;3.13;;;18.00;97.20;;;;;;1721407;28;20205;-71
2022/05/29 08:14:19;;;;;;;4.38;3.10;;;18.00;97.20;;;;;;1721407;28;20248;-71
2022/05/29 08:15:12;;;;;;;3.30;2.60;;;18.00;97.20;;;;;;1721195;28;20257;-72
2022/05/29 08:16:04;;;;;;;4.60;2.88;;;17.90;97.20;;;;;;1720866;28;20732;-72
2022/05/29 08:16:56;;;;;;;3.78;1.70;;;17.90;97.20;;;;;;1721138;28;20614;-71
2022/05/29 08:17:47;;;;;;;3.17;2.28;;;17.90;97.20;;;;;;1721010;28;20236;-72
2022/05/29 08:18:39;;;;;;;3.00;1.88;;;17.80;97.20;;;;;;1721427;28;20197;-71
2022/05/29 08:19:33;;;;;;;3.90;2.55;;;17.90;97.20;;;;;;1721410;28;20255;-72
2022/05/29 08:20:27;;;;;;;5.25;2.35;;;17.90;97.20;;;;;;1721352;28;20205;-72
2022/05/29 08:21:17;;;;;;;3.30;1.77;;;17.90;97.20;;;;;;1721452;28;20209;-72
2022/05/29 08:22:10;;;;;;;5.20;2.00;;;17.90;97.20;;;;;;1721333;28;20200;-71
2022/05/29 08:23:01;;;;;;;8.60;2.22;;;17.90;97.20;;;;;;1721384;28;20236;-72
2022/05/29 08:31:01;;;;;;;4.18;1.80;;;18.00;97.20;;;;;;1720826;28;20289;-71
2022/05/29 08:31:52;;;;;;;3.15;1.90;;;17.90;97.20;;;;;;1721575;28;20248;-71
2022/05/29 08:32:43;;;;;;;5.77;2.20;;;17.80;97.20;;;;;;1721343;28;20204;-71
2022/05/29 08:33:36;;;;;;;5.38;1.90;;;17.80;97.20;;;;;;1721336;28;20212;-71
2022/05/29 08:34:27;;;;;;;3.42;2.08;;;17.70;97.20;;;;;;1721287;28;20545;-71
2022/05/29 08:35:18;;;;;;;4.95;2.13;;;17.60;97.20;;;;;;1721074;28;20256;-71
2022/05/29 08:36:14;;;;;;;4.87;2.20;;;17.50;97.20;;;;;;1721161;28;20204;-72
2022/05/29 08:37:04;;;;;;;4.45;2.55;;;17.50;97.20;;;;;;1720996;28;20209;-71
2022/05/29 08:37:57;;;;;;;6.10;2.30;;;17.40;97.20;;;;;;1721283;28;20197;-72
2022/05/29 08:38:52;;;;;;;4.10;2.05;;;17.30;97.20;;;;;;1721007;28;20204;-71
2022/05/29 08:39:42;;;;;;;4.68;2.15;;;17.20;97.20;;;;;;1720897;28;20276;-71
2022/05/29 08:40:41;;;;;;;4.70;2.30;;;17.10;97.20;;;;;;1721224;28;20212;-71
2022/05/29 08:41:41;;;;;;;8.98;2.22;;;17.00;97.20;;;;;;1721247;28;20247;-72
2022/05/29 08:42:32;;;;;;;3.88;1.92;;;16.90;97.20;;;;;;1721306;28;20715;-72
2022/05/29 08:43:29;;;;;;;3.47;2.07;;;16.80;97.20;;;;;;1721195;28;20204;-72
2022/05/29 08:44:29;;;;;;;4.75;2.33;;;16.70;97.20;;;;;;1721267;28;20244;-71
2022/05/29 08:45:21;;;;;;;3.15;1.90;;;16.60;97.20;;;;;;1721183;28;20693;-72
2022/05/29 08:46:14;;;;;;;3.75;2.20;;;16.50;97.20;;;;;;1721091;28;20620;-72
2022/05/29 08:47:07;;;;;;;3.58;2.10;;;16.40;97.20;;;;;;1720826;28;20223;-72
2022/05/29 08:47:58;;;;;;;4.10;2.22;;;16.30;97.20;;;;;;1721178;28;20209;-71
2022/05/29 08:48:54;;;;;;;4.38;2.28;;;16.20;97.20;;;;;;1721192;28;20569;-72
2022/05/29 08:49:47;;;;;;;3.80;2.20;;;16.10;97.20;;;;;;1721212;28;20580;-72
2022/05/29 08:50:47;;;;;;;5.50;2.33;;;16.10;97.20;;;;;;1721227;28;20193;-72
2022/05/29 08:51:57;;;;;;;4.03;2.35;;;16.00;97.20;;;;;;1721255;28;20201;-71
2022/05/29 08:53:03;;;;;;;2.42;1.90;;;15.90;97.20;;;;;;1721170;28;20201;-71
2022/05/29 08:54:08;;;;;;;2.60;1.73;;;15.80;97.20;;;;;;1720887;28;20671;-72
2022/05/29 08:55:06;;;;;;;4.45;2.38;;;15.70;97.20;;;;;;1720921;28;20789;-71
2022/05/29 08:56:02;;;;;;;4.65;2.25;;;15.70;97.20;;;;;;1720476;28;20201;-72
2022/05/29 08:57:13;;;;;;;4.93;2.75;;;15.60;97.20;;;;;;1720813;28;20205;-71
2022/05/29 08:58:20;;;;;;;3.13;2.05;;;15.60;97.20;;;;;;1721082;28;20692;-71
2022/05/29 08:59:20;;;;;;;3.40;2.30;;;15.50;97.20;;;;;;1721199;28;20592;-72
2022/05/29 09:00:17;;;;;;;3.60;2.15;;;15.40;97.20;;;;;;1721130;28;20279;-71
2022/05/29 09:01:18;;;;;;;4.13;2.00;;;15.40;97.20;;;;;;1721149;28;20649;-72
2022/05/29 09:02:16;;;;;;;3.97;2.47;;;15.30;97.20;;;;;;1721220;28;20213;-71
2022/05/29 09:03:31;;;;;;;3.78;1.98;;;15.30;97.20;;;;;;1721066;28;20280;-71
2022/05/29 09:04:31;;;;;;;3.00;2.10;;;15.30;97.20;;;;;;1721075;28;20213;-71
2022/05/29 09:05:31;;;;;;;4.38;2.05;;;15.30;97.20;;;;;;1721008;28;20217;-72
2022/05/29 09:06:28;;;;;;;5.20;2.50;;;15.20;97.20;;;;;;1721112;28;20311;-72
2022/05/29 09:07:22;;;;;;;4.30;2.42;;;15.20;97.20;;;;;;1720843;28;20212;-71
2022/05/29 09:08:19;;;;;;;4.53;2.20;;;15.20;97.20;;;;;;1721056;28;20201;-71
2022/05/29 09:09:24;;;;;;;5.75;2.65;;;15.20;97.20;;;;;;1721090;28;20692;-71
2022/05/29 09:10:21;;;;;;;4.45;2.70;;;15.20;97.20;;;;;;1720530;28;20205;-71
2022/05/29 09:11:16;;;;;;;6.20;2.28;;;15.20;97.20;;;;;;1721093;28;20237;-71
2022/05/29 09:12:13;;;;;;;5.18;2.20;;;15.10;97.20;;;;;;1720990;28;20205;-71
2022/05/29 09:13:09;;;;;;;4.05;2.40;;;15.10;97.20;;;;;;1721077;28;20201;-71
2022/05/29 09:14:13;;;;;;;4.80;2.28;;;15.10;97.20;;;;;;1720661;28;20211;-71
2022/05/29 09:15:10;;;;;;;4.40;2.42;;;15.10;97.20;;;;;;1720802;28;20764;-71
2022/05/29 09:16:10;;;;;;;10.40;3.28;;;15.10;97.20;;;;;;1720969;28;20201;-71
2022/05/29 09:17:04;;;;;;;4.45;2.30;;;15.10;97.20;;;;;;1720844;28;20533;-71
2022/05/29 09:18:02;;;;;;;3.40;2.15;;;15.10;97.20;;;;;;1720861;28;20204;-71
2022/05/29 09:19:08;;;;;;;3.47;2.30;;;15.10;97.20;;;;;;1721138;28;20205;-72
2022/05/29 09:20:02;;;;;;;3.70;2.67;;;15.10;97.20;;;;;;1720993;28;20201;-71
2022/05/29 09:21:01;;;;;;;4.22;2.75;;;15.20;97.20;;;;;;1721011;28;20661;-72
2022/05/29 09:21:57;;;;;;;3.88;2.60;;;15.20;97.20;;;;;;1720915;28;20573;-71
2022/05/29 09:22:47;;;;;;;3.92;2.20;;;15.30;97.20;;;;;;1721022;28;20201;-71
2022/05/29 09:23:45;;;;;;;3.67;2.00;;;15.40;97.20;;;;;;1721030;28;20193;-72
2022/05/29 09:24:46;;;;;;;6.60;3.35;;;15.50;97.20;;;;;;1720930;28;20205;-71
2022/05/29 09:25:39;;;;;;;4.10;2.28;;;15.50;97.20;;;;;;1721039;28;20268;-71
2022/05/29 09:26:37;;;;;;;5.97;2.53;;;15.60;97.20;;;;;;1720326;28;20569;-71
2022/05/29 09:27:30;;;;;;;3.85;2.33;;;15.70;97.20;;;;;;1720655;28;20570;-71
2022/05/29 09:28:32;;;;;;;7.00;2.97;;;15.80;97.20;;;;;;1720694;28;20619;-71
2022/05/29 09:29:24;;;;;;;3.63;2.72;;;15.90;97.20;;;;;;1720962;28;20205;-71
2022/05/29 09:30:16;;;;;;;7.18;2.40;;;16.00;97.20;;;;;;1720902;28;20217;-71
2022/05/29 09:31:11;;;;;;;4.05;2.00;;;16.10;97.20;;;;;;1720936;28;20211;-71
2022/05/29 09:32:04;;;;;;;3.45;2.30;;;16.20;97.20;;;;;;1720910;28;20205;-71
2022/05/29 09:33:05;;;;;;;3.55;2.08;;;16.40;97.20;;;;;;1720896;28;20210;-72
2022/05/29 09:33:55;;;;;;;3.40;1.85;;;16.50;97.20;;;;;;1720924;28;20208;-72
2022/05/29 09:34:57;;;;;;;6.10;2.47;;;16.70;97.20;;;;;;1720853;28;20224;-72
2022/05/29 09:35:57;;;;;;;5.82;2.40;;;16.90;97.20;;;;;;1720775;28;20225;-71
2022/05/29 09:36:59;;;;;;;7.97;2.30;;;17.10;97.20;;;;;;1720604;28;20208;-72
2022/05/29 09:37:57;;;;;;;6.57;2.22;;;17.40;97.20;;;;;;1720821;28;20673;-71
2022/05/29 09:38:54;;;;;;;3.78;2.00;;;17.60;97.20;;;;;;1720840;28;20588;-71
2022/05/29 09:39:49;;;;;;;3.72;2.05;;;17.80;97.20;;;;;;1720875;28;20240;-71
2022/05/29 09:40:50;;;;;;;3.28;1.95;;;17.90;97.20;;;;;;1720836;28;20204;-72
2022/05/29 09:41:45;;;;;;;3.35;1.98;;;18.00;97.20;;;;;;1720954;28;20241;-71
2022/05/29 09:42:40;;;;;;;2.97;1.60;;;18.10;97.20;;;;;;1720572;28;20197;-71
2022/05/29 09:43:31;;;;;;;4.35;1.60;;;18.30;97.20;;;;;;1720952;28;20216;-71
2022/05/29 09:44:24;;;;;;;4.77;1.60;;;18.40;97.20;;;;;;1720888;28;20239;-73
2022/05/29 09:45:24;;;;;;;1.90;1.38;;;18.40;97.20;;;;;;1720794;28;20372;-72
2022/05/29 09:46:20;;;;;;;2.45;1.45;;;18.40;97.20;;;;;;1720767;28;20209;-72
2022/05/29 09:49:40;;;;;;;4.55;1.35;;;18.40;97.20;;;;;;1706897;29;20280;-71
2022/05/29 09:50:48;;;;;;;3.15;1.90;;;18.30;97.20;;;;;;1718638;28;20236;-72
2022/05/29 09:51:41;;;;;;;1.40;1.10;;;18.30;97.20;;;;;;1720837;28;20209;-72
2022/05/29 09:52:37;;;;;;;2.28;1.70;;;18.10;97.20;;;;;;1720862;28;20201;-71
2022/05/29 09:53:34;;;;;;;2.15;1.42;;;18.10;97.20;;;;;;1720746;28;20228;-71
2022/05/29 09:54:32;;;;;;;1.55;1.25;;;18.00;97.20;;;;;;1720783;28;20232;-71
2022/05/29 09:55:26;;;;;;;2.67;1.38;;;17.90;97.20;;;;;;1720619;28;20312;-71
2022/05/29 09:56:27;;;;;;;3.25;1.50;;;17.90;97.20;;;;;;1720785;28;20214;-72